Time;durP1;ratioP1;P1;durP2;ratioP2;P2;SDS_P1;SDS_P2;PMS_P1;PMS_P2;Temp;Humidity;BMP_temperature;BMP_pressure;BME280_temperature;BME280_humidity;BME280_pressure;Samples;Min_cycle;Max_cycle;Signal;HPM_P1;HPM_P2
2022/05/06 00:01:05;;;;;;;22.35;10.85;;;11.60;99.90;;;;;;5060472;28;20056;-75
2022/05/06 00:03:31;;;;;;;17.20;11.30;;;11.60;99.90;;;;;;5042738;28;20049;-74
2022/05/06 00:05:56;;;;;;;21.50;10.73;;;11.60;99.90;;;;;;5048208;28;20045;-74
2022/05/06 00:08:22;;;;;;;17.17;9.50;;;11.60;99.90;;;;;;5043950;28;20064;-74
2022/05/06 00:10:48;;;;;;;17.73;10.80;;;11.60;99.90;;;;;;5029423;28;20072;-75
2022/05/06 00:13:14;;;;;;;17.90;10.52;;;11.60;99.90;;;;;;5045194;28;20043;-75
2022/05/06 00:15:40;;;;;;;18.75;10.68;;;11.60;99.90;;;;;;5027819;28;20041;-74
2022/05/06 00:18:06;;;;;;;17.80;10.20;;;11.60;99.90;;;;;;5076899;28;20211;-75
2022/05/06 00:20:31;;;;;;;16.42;10.82;;;11.60;99.90;;;;;;5026614;28;20056;-76
2022/05/06 00:22:57;;;;;;;20.55;10.30;;;11.70;99.90;;;;;;5057608;28;21351;-75
2022/05/06 00:25:24;;;;;;;21.92;11.70;;;11.70;99.90;;;;;;5061341;28;20059;-75
2022/05/06 00:27:50;;;;;;;22.58;13.02;;;11.70;99.90;;;;;;5044941;28;20087;-74
2022/05/06 00:30:15;;;;;;;20.33;11.57;;;11.70;99.90;;;;;;5077669;28;20135;-75
2022/05/06 00:32:41;;;;;;;21.00;12.02;;;11.70;99.90;;;;;;5010543;28;20044;-75
2022/05/06 00:35:07;;;;;;;20.42;11.75;;;11.70;99.90;;;;;;5059220;28;20049;-75
2022/05/06 00:37:33;;;;;;;21.73;13.70;;;11.70;99.90;;;;;;5060791;28;20045;-75
2022/05/06 00:39:59;;;;;;;20.00;12.38;;;11.70;99.90;;;;;;5040523;28;20500;-75
2022/05/06 00:42:25;;;;;;;16.60;11.70;;;11.80;99.90;;;;;;5006788;28;20758;-76
2022/05/06 00:44:50;;;;;;;16.83;11.43;;;11.70;99.90;;;;;;5057644;28;20548;-75
2022/05/06 00:47:20;;;;;;;15.95;11.15;;;11.70;99.90;;;;;;5062056;28;20482;-74
2022/05/06 00:49:46;;;;;;;15.10;10.52;;;11.70;99.90;;;;;;5038927;28;20048;-74
2022/05/06 00:52:12;;;;;;;14.10;9.70;;;11.60;99.90;;;;;;5044857;28;20057;-75
2022/05/06 00:54:40;;;;;;;16.25;11.40;;;11.60;99.90;;;;;;5058675;28;20063;-75
2022/05/06 00:57:09;;;;;;;12.82;10.48;;;11.60;99.90;;;;;;5061686;28;20056;-74
2022/05/06 01:00:17;;;;;;;14.02;11.15;;;11.60;99.90;;;;;;5075840;28;20102;-76
2022/05/06 01:02:23;;;;;;;14.57;10.30;;;11.60;99.90;;;;;;5041470;28;20080;-75
2022/05/06 01:04:50;;;;;;;16.85;11.48;;;11.60;99.90;;;;;;5027369;28;20394;-71
2022/05/06 01:07:17;;;;;;;16.50;11.27;;;11.50;99.90;;;;;;5058938;28;20087;-74
2022/05/06 01:09:43;;;;;;;12.93;9.68;;;11.50;99.90;;;;;;5023424;28;20045;-75
2022/05/06 01:12:09;;;;;;;12.15;9.00;;;11.50;99.90;;;;;;5041476;28;20438;-74
2022/05/06 01:14:35;;;;;;;12.65;9.25;;;11.50;99.90;;;;;;5060506;28;20053;-74
2022/05/06 01:17:01;;;;;;;13.98;9.50;;;11.50;99.90;;;;;;5026338;28;20114;-74
2022/05/06 01:19:26;;;;;;;14.35;9.32;;;11.50;99.90;;;;;;5046185;28;20088;-75
2022/05/06 01:21:56;;;;;;;12.93;9.15;;;11.50;99.90;;;;;;5047592;28;20075;-74
2022/05/06 01:24:21;;;;;;;13.23;9.68;;;11.50;99.90;;;;;;5030982;28;20145;-74
2022/05/06 01:26:47;;;;;;;12.20;9.07;;;11.50;99.90;;;;;;5032103;28;20509;-74
2022/05/06 01:29:13;;;;;;;12.13;9.02;;;11.40;99.90;;;;;;5082089;28;20111;-74
2022/05/06 01:31:41;;;;;;;14.70;9.00;;;11.40;99.90;;;;;;5047199;28;20041;-74
2022/05/06 01:34:09;;;;;;;14.95;9.45;;;11.40;99.90;;;;;;5031242;28;20061;-74
2022/05/06 01:36:36;;;;;;;13.10;9.18;;;11.40;99.90;;;;;;5047868;28;20052;-75
2022/05/06 01:39:02;;;;;;;12.52;9.38;;;11.40;99.90;;;;;;5065465;28;20057;-74
2022/05/06 01:41:31;;;;;;;19.48;8.85;;;11.40;99.90;;;;;;5080159;28;20106;-75
2022/05/06 01:44:01;;;;;;;12.93;7.85;;;11.40;99.90;;;;;;5042029;28;20060;-75
2022/05/06 01:46:29;;;;;;;11.85;7.72;;;11.40;99.90;;;;;;5046045;28;20556;-76
2022/05/06 01:48:55;;;;;;;10.65;7.15;;;11.40;99.90;;;;;;5064291;28;20041;-75
2022/05/06 01:51:22;;;;;;;14.35;8.80;;;11.40;99.90;;;;;;5027943;28;20081;-75
2022/05/06 01:53:49;;;;;;;12.85;7.68;;;11.40;99.90;;;;;;5028683;28;20048;-75
2022/05/06 01:56:18;;;;;;;10.75;7.25;;;11.40;99.90;;;;;;5048293;28;20055;-75
2022/05/06 01:58:44;;;;;;;12.48;8.30;;;11.50;99.90;;;;;;5077790;28;20041;-74
2022/05/06 02:01:11;;;;;;;10.30;7.22;;;11.40;99.90;;;;;;5030074;28;20053;-75
2022/05/06 02:06:22;;;;;;;11.05;7.28;;;11.40;99.90;;;;;;5078754;28;20048;-75
2022/05/06 02:08:47;;;;;;;10.88;6.57;;;11.30;99.90;;;;;;5078361;28;20881;-75
2022/05/06 02:11:13;;;;;;;12.05;7.70;;;11.30;99.90;;;;;;5031589;28;20060;-74
2022/05/06 02:13:39;;;;;;;13.90;7.57;;;11.30;99.90;;;;;;5046209;28;20059;-76
2022/05/06 02:16:05;;;;;;;10.77;6.95;;;11.30;99.90;;;;;;5061141;28;20037;-75
2022/05/06 02:18:31;;;;;;;10.35;7.63;;;11.30;99.90;;;;;;5030498;28;20123;-75
2022/05/06 02:20:58;;;;;;;11.55;7.55;;;11.30;99.90;;;;;;5025889;28;20070;-75
2022/05/06 02:23:24;;;;;;;11.85;8.30;;;11.30;99.90;;;;;;5078014;28;20053;-74
2022/05/06 02:25:50;;;;;;;12.32;8.80;;;11.30;99.90;;;;;;5043872;28;20119;-75
2022/05/06 02:28:16;;;;;;;14.85;8.63;;;11.30;99.90;;;;;;5045171;28;20127;-75
2022/05/06 02:33:27;;;;;;;16.42;9.77;;;11.30;99.90;;;;;;5063952;28;20048;-74
2022/05/06 02:35:53;;;;;;;17.35;9.82;;;11.30;99.90;;;;;;5030025;28;20052;-75
2022/05/06 02:38:21;;;;;;;13.13;9.43;;;11.30;99.90;;;;;;5059608;28;20109;-75
2022/05/06 02:40:48;;;;;;;18.05;10.07;;;11.20;99.90;;;;;;5040768;28;20079;-75
2022/05/06 02:43:14;;;;;;;15.32;9.77;;;11.20;99.90;;;;;;5044729;28;20052;-74
2022/05/06 02:45:40;;;;;;;18.95;9.70;;;11.20;99.90;;;;;;5028732;28;20090;-75
2022/05/06 02:48:07;;;;;;;17.13;10.30;;;11.20;99.90;;;;;;5024431;28;20113;-75
2022/05/06 02:50:33;;;;;;;19.33;10.68;;;11.20;99.90;;;;;;5042989;28;20154;-75
2022/05/06 02:52:58;;;;;;;18.10;10.65;;;11.10;99.90;;;;;;5077430;28;20522;-75
2022/05/06 02:55:25;;;;;;;21.25;11.00;;;11.20;99.90;;;;;;5028858;28;20051;-75
2022/05/06 02:57:51;;;;;;;19.27;10.88;;;11.10;99.90;;;;;;5043524;28;20139;-75
2022/05/06 03:00:17;;;;;;;22.95;10.73;;;11.10;99.90;;;;;;5076996;28;20520;-75
2022/05/06 03:02:43;;;;;;;20.98;10.05;;;11.10;99.90;;;;;;5024968;28;20040;-74
2022/05/06 03:05:10;;;;;;;16.38;9.88;;;11.10;99.90;;;;;;5061975;28;20049;-75
2022/05/06 03:07:36;;;;;;;19.70;9.95;;;11.10;99.90;;;;;;5043915;28;20044;-74
2022/05/06 03:10:03;;;;;;;15.38;8.98;;;11.10;99.90;;;;;;5043239;28;20103;-75
2022/05/06 03:12:30;;;;;;;14.30;9.15;;;11.10;99.90;;;;;;5028329;28;20045;-75
2022/05/06 03:15:03;;;;;;;19.98;9.75;;;11.10;99.90;;;;;;5043565;28;20522;-74
2022/05/06 03:17:30;;;;;;;18.27;9.38;;;11.10;99.90;;;;;;5026601;28;20045;-74
2022/05/06 03:19:57;;;;;;;16.95;9.77;;;11.10;99.90;;;;;;5077245;28;20092;-74
2022/05/06 03:22:23;;;;;;;14.52;9.38;;;11.10;99.90;;;;;;5026569;28;20044;-76
2022/05/06 03:24:49;;;;;;;13.15;8.80;;;11.10;99.90;;;;;;5003571;28;1129705;-76
2022/05/06 03:30:00;;;;;;;13.90;9.32;;;11.00;99.90;;;;;;5043263;28;20049;-74
2022/05/06 03:32:27;;;;;;;17.58;9.40;;;11.00;99.90;;;;;;5062122;28;20098;-75
2022/05/06 03:34:53;;;;;;;17.30;9.52;;;10.90;99.90;;;;;;5044263;28;20271;-75
2022/05/06 03:37:19;;;;;;;14.75;8.90;;;10.90;99.90;;;;;;5045557;28;20048;-75
2022/05/06 03:39:45;;;;;;;17.48;9.23;;;10.90;99.90;;;;;;5044051;28;20048;-75
2022/05/06 03:42:11;;;;;;;20.80;10.43;;;10.90;99.90;;;;;;5028822;28;20164;-75
2022/05/06 03:44:36;;;;;;;16.92;9.80;;;10.80;99.90;;;;;;5010194;28;20102;-75
2022/05/06 03:47:02;;;;;;;19.10;9.75;;;10.80;99.90;;;;;;5042915;28;20052;-74
2022/05/06 03:49:28;;;;;;;15.80;9.82;;;10.80;99.90;;;;;;5062803;28;20055;-75
2022/05/06 03:51:54;;;;;;;13.60;9.07;;;10.80;99.90;;;;;;5024949;28;20041;-75
2022/05/06 03:54:20;;;;;;;13.75;9.57;;;10.80;99.90;;;;;;5044324;28;20048;-75
2022/05/06 03:56:46;;;;;;;15.23;9.07;;;10.80;99.90;;;;;;5025343;28;20041;-74
2022/05/06 03:59:11;;;;;;;15.27;9.23;;;10.80;99.90;;;;;;5026944;28;20048;-75
2022/05/06 04:01:37;;;;;;;20.25;10.05;;;10.70;99.90;;;;;;5042360;28;20402;-75
2022/05/06 04:04:04;;;;;;;16.33;9.75;;;10.70;99.90;;;;;;5045388;28;20049;-74
2022/05/06 04:06:30;;;;;;;16.52;10.43;;;10.70;99.90;;;;;;5029959;28;20041;-74
2022/05/06 04:08:55;;;;;;;16.58;10.23;;;10.70;99.90;;;;;;5045260;28;20049;-74
2022/05/06 04:11:21;;;;;;;15.63;10.43;;;10.70;99.90;;;;;;5043614;28;20079;-74
2022/05/06 04:13:47;;;;;;;16.52;10.48;;;10.80;99.90;;;;;;5058198;28;20140;-75
2022/05/06 04:16:14;;;;;;;18.75;10.15;;;10.80;99.90;;;;;;5027263;28;20060;-75
2022/05/06 04:18:40;;;;;;;15.93;10.10;;;10.80;99.90;;;;;;5060352;28;20055;-74
2022/05/06 04:23:51;;;;;;;15.38;10.95;;;10.80;99.90;;;;;;5030045;28;20060;-74
2022/05/06 04:26:17;;;;;;;16.90;10.00;;;10.80;99.90;;;;;;5026882;28;20051;-74
2022/05/06 04:28:44;;;;;;;15.10;10.00;;;10.80;99.90;;;;;;5042142;28;20044;-74
2022/05/06 04:31:10;;;;;;;17.88;10.18;;;10.80;99.90;;;;;;5076449;28;20060;-74
2022/05/06 04:33:40;;;;;;;18.40;10.32;;;10.80;99.90;;;;;;5028048;28;20048;-76
2022/05/06 04:36:06;;;;;;;18.40;10.25;;;10.80;99.90;;;;;;5058871;28;20041;-74
2022/05/06 04:38:33;;;;;;;17.27;10.70;;;10.90;99.90;;;;;;5043616;28;20072;-75
2022/05/06 04:41:00;;;;;;;13.25;8.95;;;10.90;99.90;;;;;;5076107;28;21025;-75
2022/05/06 04:43:26;;;;;;;15.93;9.02;;;10.90;99.90;;;;;;5055560;28;20107;-75
2022/05/06 04:45:53;;;;;;;15.32;9.38;;;10.90;99.90;;;;;;5077409;28;20045;-75
2022/05/06 04:48:19;;;;;;;12.68;8.13;;;10.90;99.90;;;;;;5044784;28;20037;-75
2022/05/06 04:50:46;;;;;;;12.43;8.63;;;10.90;99.90;;;;;;5025926;28;20068;-75
2022/05/06 04:53:12;;;;;;;13.90;8.63;;;10.90;99.90;;;;;;5027840;28;20410;-75
2022/05/06 04:55:43;;;;;;;11.40;7.88;;;10.90;99.90;;;;;;5043482;28;20056;-77
2022/05/06 04:58:10;;;;;;;13.60;8.68;;;10.90;99.90;;;;;;5042086;28;20048;-75
2022/05/06 05:00:36;;;;;;;12.15;8.07;;;11.00;99.90;;;;;;5076088;28;20056;-75
2022/05/06 05:03:02;;;;;;;11.45;7.85;;;11.00;99.90;;;;;;5038841;28;20524;-75
2022/05/06 05:05:29;;;;;;;9.18;6.68;;;11.00;99.90;;;;;;5062790;28;20048;-75
2022/05/06 05:07:54;;;;;;;8.63;6.68;;;11.00;99.90;;;;;;5075488;28;20553;-74
2022/05/06 05:10:21;;;;;;;8.35;6.22;;;11.00;99.90;;;;;;5028925;28;20104;-75
2022/05/06 05:12:47;;;;;;;6.80;5.45;;;11.00;99.90;;;;;;5006590;28;20045;-74
2022/05/06 05:15:15;;;;;;;6.28;5.28;;;11.00;99.90;;;;;;5075624;28;20049;-74
2022/05/06 05:17:45;;;;;;;6.65;4.90;;;11.00;99.90;;;;;;5043745;28;20053;-75
2022/05/06 05:20:12;;;;;;;5.88;4.47;;;11.00;99.90;;;;;;5042632;28;20110;-74
2022/05/06 05:22:38;;;;;;;5.90;5.10;;;11.10;99.90;;;;;;5039282;28;20573;-74
2022/05/06 05:25:05;;;;;;;6.80;5.20;;;11.10;99.90;;;;;;5008314;28;20051;-75
2022/05/06 05:27:31;;;;;;;6.28;4.97;;;11.10;99.90;;;;;;5026426;28;20056;-75
2022/05/06 05:29:58;;;;;;;5.65;4.60;;;11.10;99.90;;;;;;5040528;28;20107;-74
2022/05/06 05:32:25;;;;;;;5.80;4.70;;;11.10;99.90;;;;;;5044252;28;20053;-76
2022/05/06 05:34:50;;;;;;;5.18;4.53;;;11.10;99.90;;;;;;5042873;28;20279;-76
2022/05/06 05:37:17;;;;;;;5.82;4.60;;;11.10;99.90;;;;;;5061164;28;20124;-76
2022/05/06 05:39:43;;;;;;;5.78;4.90;;;11.10;99.90;;;;;;5058675;28;20625;-76
2022/05/06 05:42:09;;;;;;;4.53;4.13;;;11.10;99.90;;;;;;5060458;28;20145;-74
2022/05/06 05:50:04;;;;;;;4.97;4.47;;;11.20;99.90;;;;;;5040280;28;20088;-74
2022/05/06 05:52:30;;;;;;;5.85;5.15;;;11.20;99.90;;;;;;5076426;28;20085;-75
2022/05/06 05:54:56;;;;;;;5.97;5.38;;;11.20;99.90;;;;;;5042713;28;20045;-75
2022/05/06 05:57:21;;;;;;;6.55;5.95;;;11.30;99.90;;;;;;5009257;28;20589;-75
2022/05/06 05:59:47;;;;;;;6.90;6.07;;;11.30;99.90;;;;;;5042253;28;20094;-75
2022/05/06 06:02:14;;;;;;;6.50;5.80;;;11.30;99.90;;;;;;5043262;28;20151;-74
2022/05/06 06:04:41;;;;;;;6.30;5.70;;;11.30;99.90;;;;;;5041800;28;20124;-75
2022/05/06 06:07:07;;;;;;;5.97;5.43;;;10.80;99.90;;;;;;5031761;28;20060;-75
2022/05/06 06:09:33;;;;;;;5.38;4.88;;;11.30;99.90;;;;;;5062330;28;20576;-75
2022/05/06 06:11:59;;;;;;;5.15;4.65;;;11.30;99.90;;;;;;5048189;28;20037;-75
2022/05/06 06:14:24;;;;;;;5.57;4.57;;;11.30;99.90;;;;;;5024094;28;20056;-75
2022/05/06 06:16:50;;;;;;;4.90;4.40;;;11.50;99.90;;;;;;5031384;28;20057;-75
2022/05/06 06:19:16;;;;;;;5.50;5.00;;;11.50;99.90;;;;;;5064247;28;20064;-73
2022/05/06 06:21:43;;;;;;;4.55;4.15;;;11.50;99.90;;;;;;5049738;28;20118;-75
2022/05/06 06:24:09;;;;;;;4.65;4.25;;;11.60;99.90;;;;;;5049219;28;20053;-75
2022/05/06 06:26:35;;;;;;;4.50;3.95;;;11.60;99.90;;;;;;5083292;28;20131;-75
2022/05/06 06:29:02;;;;;;;4.28;3.88;;;11.70;99.90;;;;;;5008308;28;20057;-76
2022/05/06 06:31:32;;;;;;;4.47;3.75;;;11.70;99.90;;;;;;5044981;28;20045;-75
2022/05/06 06:33:59;;;;;;;4.97;4.40;;;11.70;99.90;;;;;;5059331;28;20127;-76
2022/05/06 06:36:25;;;;;;;4.75;4.22;;;11.70;99.90;;;;;;5079887;28;20127;-76
2022/05/06 06:38:51;;;;;;;4.35;3.88;;;11.70;99.90;;;;;;5044827;28;20053;-76
2022/05/06 06:41:18;;;;;;;4.25;3.85;;;11.70;99.90;;;;;;5030283;28;20090;-76
2022/05/06 06:43:43;;;;;;;4.60;4.10;;;11.70;99.90;;;;;;5046567;28;20116;-76
2022/05/06 06:46:09;;;;;;;5.28;3.72;;;11.70;99.90;;;;;;5064187;28;20127;-76
2022/05/06 06:48:35;;;;;;;5.63;4.47;;;11.90;99.90;;;;;;5029547;28;20064;-77
2022/05/06 06:51:01;;;;;;;5.20;3.90;;;12.10;99.90;;;;;;5028066;28;20099;-76
2022/05/06 06:53:27;;;;;;;5.63;4.03;;;12.30;99.90;;;;;;5081287;28;20410;-77
2022/05/06 06:55:53;;;;;;;4.75;3.78;;;12.50;99.90;;;;;;5060082;28;20050;-76
2022/05/06 06:58:18;;;;;;;3.58;3.28;;;12.70;99.90;;;;;;5063551;28;20091;-76
2022/05/06 07:00:44;;;;;;;3.80;3.08;;;12.80;99.90;;;;;;5032711;28;20049;-76
2022/05/06 07:03:12;;;;;;;3.63;2.92;;;12.80;99.90;;;;;;5048890;28;20118;-77
2022/05/06 07:11:52;;;;;;;3.33;2.90;;;12.80;99.90;;;;;;5042625;28;20489;-76
2022/05/06 07:13:52;;;;;;;4.15;3.10;;;12.80;99.90;;;;;;5048991;28;20163;-72
2022/05/06 07:16:18;;;;;;;3.05;2.70;;;12.80;99.90;;;;;;5032527;28;20190;-76
2022/05/06 07:18:44;;;;;;;2.50;2.20;;;12.80;99.90;;;;;;5049229;28;20063;-75
2022/05/06 07:21:09;;;;;;;3.00;2.47;;;12.80;99.90;;;;;;5065692;28;20057;-76
2022/05/06 07:23:35;;;;;;;2.30;1.95;;;12.90;99.90;;;;;;5031401;28;20080;-76
2022/05/06 07:26:01;;;;;;;2.70;2.40;;;12.90;99.90;;;;;;5008478;28;20887;-76
2022/05/06 07:28:26;;;;;;;2.70;2.05;;;12.90;99.90;;;;;;5032888;28;20106;-76
2022/05/06 07:30:52;;;;;;;2.90;2.53;;;13.00;99.90;;;;;;5031963;28;20056;-77
2022/05/06 07:33:18;;;;;;;3.10;2.60;;;13.00;99.90;;;;;;5048662;28;20104;-78
2022/05/06 07:35:43;;;;;;;3.47;2.83;;;13.30;99.90;;;;;;5065043;28;20406;-78
2022/05/06 07:38:09;;;;;;;4.30;2.95;;;13.40;99.90;;;;;;5006792;28;20179;-81
2022/05/06 07:40:35;;;;;;;3.85;3.42;;;13.50;99.90;;;;;;5049118;28;20093;-79
2022/05/06 07:43:01;;;;;;;3.85;3.03;;;13.60;99.90;;;;;;5024200;28;20115;-78
2022/05/06 07:45:26;;;;;;;4.30;2.97;;;13.70;99.90;;;;;;5048278;28;20226;-78
2022/05/06 07:47:52;;;;;;;3.25;2.63;;;13.80;99.90;;;;;;5041088;28;20055;-80
2022/05/06 07:50:18;;;;;;;2.65;2.20;;;13.90;99.90;;;;;;5024807;28;20048;-79
2022/05/06 07:52:44;;;;;;;3.35;2.35;;;14.00;99.90;;;;;;5040478;28;20129;-78
2022/05/06 07:55:13;;;;;;;2.92;2.13;;;14.10;99.90;;;;;;5048084;28;20045;-77
2022/05/06 07:57:39;;;;;;;3.75;2.10;;;14.20;99.90;;;;;;5048116;28;20072;-77
2022/05/06 08:00:05;;;;;;;3.45;2.10;;;14.50;99.90;;;;;;5029389;28;20060;-78
2022/05/06 08:05:15;;;;;;;2.40;1.90;;;15.10;99.90;;;;;;5047118;28;20049;-79
2022/05/06 08:07:41;;;;;;;2.53;1.90;;;15.30;99.90;;;;;;5031453;28;20560;-78
2022/05/06 08:10:08;;;;;;;2.92;2.10;;;15.20;99.90;;;;;;5048339;28;20055;-78
2022/05/06 08:12:33;;;;;;;3.00;2.10;;;15.10;99.90;;;;;;5031543;28;20082;-78
2022/05/06 08:14:59;;;;;;;3.10;2.20;;;15.00;99.90;;;;;;5046109;28;20037;-78
2022/05/06 08:17:25;;;;;;;2.80;2.13;;;15.00;99.90;;;;;;5048221;28;20170;-76
2022/05/06 08:19:50;;;;;;;2.75;2.28;;;15.00;99.90;;;;;;5032110;28;20052;-76
2022/05/06 08:22:16;;;;;;;3.65;2.40;;;15.10;99.90;;;;;;5063908;28;20094;-75
2022/05/06 08:24:43;;;;;;;2.80;2.25;;;15.10;99.90;;;;;;5030826;28;20084;-77
2022/05/06 08:27:10;;;;;;;3.03;2.25;;;15.20;99.90;;;;;;5081216;28;20048;-76
2022/05/06 08:29:36;;;;;;;3.35;2.65;;;15.40;99.90;;;;;;5031085;28;20072;-76
2022/05/06 08:32:03;;;;;;;4.00;2.58;;;15.40;99.90;;;;;;5029750;28;20084;-74
2022/05/06 08:34:30;;;;;;;3.60;2.88;;;15.40;99.90;;;;;;5065800;28;20052;-76
2022/05/06 08:36:56;;;;;;;3.42;2.60;;;15.30;99.90;;;;;;5065661;28;20414;-76
2022/05/06 08:39:22;;;;;;;3.15;2.47;;;15.20;99.90;;;;;;5064741;28;20053;-76
2022/05/06 08:41:48;;;;;;;3.15;2.50;;;15.00;99.90;;;;;;5080814;28;20067;-76
2022/05/06 08:52:44;;;;;;;2.85;2.30;;;15.00;99.90;;;;;;5072654;28;20136;-77
2022/05/06 08:55:10;;;;;;;3.75;2.40;;;15.40;99.90;;;;;;5015970;28;20157;-76
2022/05/06 08:57:37;;;;;;;2.90;2.38;;;15.40;99.90;;;;;;5038643;28;20092;-75
2022/05/06 09:00:05;;;;;;;3.17;2.33;;;15.60;99.90;;;;;;5024680;28;20056;-76
2022/05/06 09:02:30;;;;;;;2.95;2.38;;;16.00;99.90;;;;;;5056266;28;20052;-76
2022/05/06 09:04:57;;;;;;;2.90;1.83;;;16.30;99.90;;;;;;5056994;28;20045;-77
2022/05/06 09:07:25;;;;;;;3.53;2.47;;;16.70;99.90;;;;;;5034103;28;20231;-76
2022/05/06 09:10:12;;;;;;;4.53;2.47;;;17.00;99.90;;;;;;5056479;28;20057;-76
2022/05/06 09:12:41;;;;;;;3.10;1.92;;;17.20;99.90;;;;;;5041423;28;20033;-76
2022/05/06 09:17:55;;;;;;;2.58;1.95;;;17.50;99.90;;;;;;5040908;28;20048;-75
2022/05/06 09:20:21;;;;;;;2.55;1.95;;;17.80;99.90;;;;;;5023790;28;20079;-76
2022/05/06 09:22:50;;;;;;;3.28;2.00;;;18.10;99.90;;;;;;5041829;28;20068;-77
2022/05/06 09:25:42;;;;;;;5.90;2.13;;;18.30;99.90;;;;;;5055121;28;20049;-76
2022/05/06 09:28:28;;;;;;;2.42;1.70;;;18.30;99.90;;;;;;5023591;28;20049;-77
2022/05/06 09:30:58;;;;;;;;;;;18.30;99.90;;;;;;5040259;28;20397;-75
2022/05/06 09:33:25;;;;;;;2.10;1.60;;;18.50;99.90;;;;;;5074333;28;19921;-77
2022/05/06 09:35:51;;;;;;;2.10;1.50;;;18.60;99.90;;;;;;5042599;28;20053;-76
2022/05/06 09:38:17;;;;;;;2.95;1.90;;;18.70;99.90;;;;;;5041142;28;20110;-76
2022/05/06 09:40:42;;;;;;;2.33;1.80;;;18.60;99.90;;;;;;5076053;28;20045;-78
2022/05/06 09:43:16;;;;;;;2.40;1.92;;;18.60;99.90;;;;;;5026785;28;20077;-76
2022/05/06 09:45:44;;;;;;;2.45;1.92;;;18.60;99.90;;;;;;5044775;28;20045;-76
2022/05/06 09:48:12;;;;;;;2.50;2.03;;;18.70;99.90;;;;;;5042526;28;20098;-78
2022/05/06 09:50:39;;;;;;;3.35;2.40;;;18.90;99.90;;;;;;5061114;28;20045;-77
2022/05/06 09:53:13;;;;;;;3.35;2.60;;;18.90;99.90;;;;;;5040963;28;20061;-76
2022/05/06 09:55:41;;;;;;;3.40;2.30;;;18.80;99.90;;;;;;5049147;28;20060;-77
2022/05/06 09:58:08;;;;;;;3.50;2.40;;;18.60;99.90;;;;;;5046370;28;20041;-77
2022/05/06 10:00:34;;;;;;;3.60;2.90;;;18.70;99.90;;;;;;5065095;28;20045;-80
2022/05/06 10:03:01;;;;;;;4.10;2.80;;;18.80;99.90;;;;;;5047367;28;20041;-79
2022/05/06 10:05:28;;;;;;;3.67;2.70;;;19.10;99.90;;;;;;5065223;28;20126;-77
2022/05/06 10:08:03;;;;;;;4.20;3.35;;;19.40;99.90;;;;;;5032833;28;20139;-77
2022/05/06 10:10:32;;;;;;;3.85;3.17;;;19.70;99.90;;;;;;5049385;28;20059;-77
2022/05/06 10:13:04;;;;;;;4.32;3.92;;;20.10;99.90;;;;;;5046133;28;20052;-77
2022/05/06 10:15:31;;;;;;;5.50;3.47;;;20.30;99.90;;;;;;5044285;28;20072;-77
2022/05/06 10:18:01;;;;;;;5.15;4.07;;;20.60;99.90;;;;;;5047576;28;20057;-80
2022/05/06 10:20:36;;;;;;;4.75;3.60;;;20.80;99.90;;;;;;5049075;28;20041;-77
2022/05/06 10:23:07;;;;;;;4.45;3.72;;;21.20;99.90;;;;;;5030031;28;20120;-77
2022/05/06 10:25:45;;;;;;;4.85;4.15;;;21.20;99.90;;;;;;5047798;28;20155;-78
2022/05/06 10:34:14;;;;;;;5.18;4.20;;;21.60;99.90;;;;;;5048528;28;20049;-77
2022/05/06 10:36:44;;;;;;;5.60;4.45;;;21.80;99.90;;;;;;5044135;28;20091;-77
2022/05/06 10:39:23;;;;;;;5.40;4.82;;;22.00;99.90;;;;;;5041066;28;20123;-76
2022/05/06 10:42:09;;;;;;;4.68;4.15;;;22.20;99.90;;;;;;5048851;28;20409;-76
2022/05/06 10:44:45;;;;;;;5.10;4.47;;;22.50;99.90;;;;;;5030400;28;20045;-77
2022/05/06 10:47:19;;;;;;;6.15;4.38;;;22.60;99.80;;;;;;5028483;28;20099;-77
2022/05/06 10:49:52;;;;;;;5.03;4.60;;;22.90;99.90;;;;;;5062747;28;20048;-78
2022/05/06 10:52:20;;;;;;;5.05;4.55;;;23.00;99.70;;;;;;5047788;28;20193;-78
2022/05/06 10:54:53;;;;;;;5.03;4.00;;;22.80;99.30;;;;;;5062879;28;20127;-75
2022/05/06 10:57:23;;;;;;;5.50;4.55;;;22.70;99.90;;;;;;5078327;28;20482;-78
2022/05/06 11:00:02;;;;;;;5.47;4.85;;;22.70;99.90;;;;;;5044589;28;20037;-77
2022/05/06 11:02:29;;;;;;;5.60;4.60;;;22.80;99.60;;;;;;5028320;28;20044;-78
2022/05/06 11:04:59;;;;;;;5.25;4.75;;;22.90;99.40;;;;;;5025404;28;20444;-79
2022/05/06 11:07:26;;;;;;;5.75;4.88;;;23.00;99.50;;;;;;5044586;28;20537;-78
2022/05/06 11:09:51;;;;;;;8.70;5.00;;;23.20;99.10;;;;;;5045948;28;20041;-77
2022/05/06 11:12:34;;;;;;;7.30;5.85;;;23.10;98.90;;;;;;5028476;28;20102;-82
2022/05/06 11:15:03;;;;;;;5.80;5.05;;;22.90;98.20;;;;;;5057350;28;20056;-78
2022/05/06 11:17:31;;;;;;;6.60;5.03;;;22.90;99.10;;;;;;5080789;28;20528;-77
2022/05/06 11:19:58;;;;;;;5.55;5.05;;;22.90;98.90;;;;;;5046576;28;20128;-81
2022/05/06 11:22:25;;;;;;;5.65;5.07;;;23.40;99.10;;;;;;5047615;28;20041;-80
2022/05/06 11:24:58;;;;;;;5.00;4.50;;;22.90;98.90;;;;;;5046748;28;20079;-78
2022/05/06 11:27:24;;;;;;;5.47;4.97;;;22.90;98.60;;;;;;5045322;28;20057;-78
2022/05/06 11:29:55;;;;;;;5.72;4.93;;;23.00;98.70;;;;;;5045394;28;20053;-79
2022/05/06 11:32:22;;;;;;;14.55;5.35;;;23.20;98.40;;;;;;5024821;28;20128;-79
2022/05/06 11:35:10;;;;;;;8.98;5.43;;;23.00;98.20;;;;;;5026362;28;20501;-79
2022/05/06 11:37:40;;;;;;;6.05;5.55;;;23.10;98.00;;;;;;5048550;28;20041;-79
2022/05/06 11:40:32;;;;;;;6.22;5.13;;;23.00;98.10;;;;;;5026358;28;20040;-80
2022/05/06 11:43:04;;;;;;;8.52;5.82;;;23.00;98.70;;;;;;5031295;28;20039;-78
2022/05/06 11:48:22;;;;;;;47.20;8.30;;;22.80;98.70;;;;;;5046070;28;20074;-80
2022/05/06 11:50:55;;;;;;;9.30;5.97;;;22.70;99.30;;;;;;5047216;28;20048;-79
2022/05/06 11:53:21;;;;;;;7.40;6.70;;;22.60;99.20;;;;;;5022895;28;20052;-80
2022/05/06 11:55:47;;;;;;;8.40;6.53;;;22.70;99.60;;;;;;5030902;28;20501;-78
2022/05/06 11:58:15;;;;;;;6.93;6.22;;;22.80;99.70;;;;;;5041339;28;20254;-76
2022/05/06 12:00:43;;;;;;;7.82;6.78;;;22.80;99.40;;;;;;5030083;28;20190;-78
2022/05/06 12:03:09;;;;;;;7.75;6.88;;;23.00;99.40;;;;;;5024061;28;20384;-79
2022/05/06 12:05:38;;;;;;;9.18;7.25;;;23.00;98.90;;;;;;5081542;28;20131;-79
2022/05/06 12:08:05;;;;;;;7.38;6.68;;;22.80;98.80;;;;;;5044075;28;20063;-79
2022/05/06 12:10:36;;;;;;;9.35;6.95;;;22.70;99.20;;;;;;5046936;28;20048;-78
2022/05/06 12:13:06;;;;;;;8.65;6.97;;;22.80;99.40;;;;;;5009167;28;20049;-78
2022/05/06 12:15:38;;;;;;;8.80;7.80;;;23.00;99.60;;;;;;5047823;28;20048;-79
2022/05/06 12:18:09;;;;;;;8.43;7.50;;;23.10;99.50;;;;;;5029816;28;20059;-79
2022/05/06 12:20:36;;;;;;;8.60;7.78;;;23.10;99.10;;;;;;5029408;28;20507;-80
2022/05/06 12:23:03;;;;;;;8.88;7.50;;;23.20;99.10;;;;;;5045886;28;20099;-78
2022/05/06 12:25:29;;;;;;;8.43;7.50;;;23.00;99.00;;;;;;5034480;28;20059;-78
2022/05/06 12:28:13;;;;;;;8.95;7.70;;;22.80;98.90;;;;;;5046510;28;20041;-77
2022/05/06 12:30:39;;;;;;;10.40;8.63;;;22.90;99.20;;;;;;5061620;28;20132;-78
2022/05/06 12:33:16;;;;;;;10.75;8.68;;;22.90;99.30;;;;;;5046210;28;20200;-78
2022/05/06 12:36:00;;;;;;;10.82;8.60;;;22.90;99.00;;;;;;5039961;28;20044;-78
2022/05/06 12:38:45;;;;;;;9.60;8.52;;;22.90;99.50;;;;;;5029298;28;20048;-78
2022/05/06 12:41:21;;;;;;;9.05;8.15;;;22.80;99.60;;;;;;5027989;28;20055;-79
2022/05/06 12:43:48;;;;;;;10.43;8.65;;;23.10;99.50;;;;;;5021894;28;20056;-77
2022/05/06 12:46:28;;;;;;;10.05;9.05;;;23.20;99.40;;;;;;5043985;28;20131;-81
2022/05/06 12:51:40;;;;;;;;;;;23.40;99.00;;;;;;5046312;28;20474;-76
2022/05/06 12:54:07;;;;;;;10.73;8.63;;;23.30;98.80;;;;;;5080006;28;19924;-79
2022/05/06 12:56:34;;;;;;;10.00;9.00;;;23.30;99.00;;;;;;5022668;28;20049;-78
2022/05/06 12:59:00;;;;;;;10.77;9.73;;;23.10;98.50;;;;;;5023193;28;20048;-78
2022/05/06 13:01:25;;;;;;;9.80;8.80;;;22.90;98.30;;;;;;5046105;28;20437;-80
2022/05/06 13:03:51;;;;;;;10.55;8.57;;;22.90;98.70;;;;;;5030492;28;20048;-81
2022/05/06 13:06:17;;;;;;;10.82;9.60;;;22.80;98.90;;;;;;5044857;28;20084;-81
2022/05/06 13:08:42;;;;;;;11.60;10.40;;;22.80;99.30;;;;;;5029292;28;20351;-81
2022/05/06 13:11:08;;;;;;;13.43;10.52;;;22.80;99.70;;;;;;5045516;28;20568;-80
2022/05/06 13:13:34;;;;;;;10.45;9.27;;;22.70;99.20;;;;;;5046616;28;20068;-80
2022/05/06 13:16:00;;;;;;;10.40;9.30;;;22.40;99.00;;;;;;5010372;28;20045;-81
2022/05/06 13:18:26;;;;;;;13.50;10.15;;;22.50;99.10;;;;;;5033722;28;20359;-82
2022/05/06 13:20:52;;;;;;;11.85;9.05;;;22.50;99.10;;;;;;5083022;28;20045;-79
2022/05/06 13:23:18;;;;;;;10.38;9.35;;;22.50;99.00;;;;;;5081857;28;20064;-79
2022/05/06 13:25:45;;;;;;;11.50;10.40;;;22.40;98.60;;;;;;5035068;28;20160;-79
2022/05/06 13:28:12;;;;;;;11.27;10.07;;;22.40;98.60;;;;;;5048411;28;20129;-79
2022/05/06 13:30:38;;;;;;;11.45;9.65;;;22.30;99.00;;;;;;5080091;28;20060;-78